createdAt,value
2022-11-03T00:00:06.585Z,77.84
2022-11-03T00:30:03.978Z,78.04
2022-11-03T01:00:03.997Z,78.03
2022-11-03T01:30:04.016Z,78.06
2022-11-03T02:00:04.013Z,78.1
2022-11-03T02:30:04.012Z,78.15
2022-11-03T03:00:04.047Z,78.42
2022-11-03T03:30:04.027Z,78.77
2022-11-03T04:00:04.037Z,78.85
2022-11-03T04:30:04.031Z,78.89
2022-11-03T05:00:04.036Z,79.09
2022-11-03T05:30:04.036Z,79.19
2022-11-03T06:00:04.037Z,79.47
2022-11-03T06:30:04.063Z,79.7
2022-11-03T07:00:28.620Z,79.86
2022-11-03T07:30:04.043Z,79.59
2022-11-03T08:00:07.228Z,79.85
2022-11-03T08:30:04.060Z,79.51
2022-11-03T09:00:04.072Z,79.22
2022-11-03T09:30:13.238Z,78.79
2022-11-03T10:00:04.072Z,78.06
2022-11-03T10:30:04.063Z,77.53
2022-11-03T11:00:04.085Z,76.87
2022-11-03T11:30:04.115Z,75.97
2022-11-03T12:00:04.098Z,75.23
2022-11-03T12:30:04.088Z,74.33
2022-11-03T13:00:04.094Z,74.39
2022-11-03T13:30:04.097Z,74.3
2022-11-03T14:00:05.300Z,74.3
2022-11-03T14:30:04.235Z,74.68
2022-11-03T15:00:04.173Z,75.22
2022-11-03T15:30:04.106Z,75.53
2022-11-03T16:00:04.109Z,75.84
2022-11-03T16:30:04.121Z,76.27
2022-11-03T17:28:18.977Z,76.8
2022-11-03T17:58:18.848Z,76.92
2022-11-03T18:28:18.839Z,77.24
2022-11-03T18:58:18.847Z,77.68
2022-11-03T19:28:18.844Z,77.87
2022-11-03T19:58:18.871Z,78
2022-11-03T20:28:18.873Z,78.15
2022-11-03T20:58:18.863Z,78.16
2022-11-03T21:28:18.889Z,78.58
2022-11-03T21:58:18.876Z,78.91
2022-11-03T22:28:19.242Z,79.38
2022-11-03T22:58:18.903Z,80.29
2022-11-03T23:28:18.883Z,79.85
2022-11-03T23:58:18.889Z,79.88
